Time;durP1;ratioP1;P1;durP2;ratioP2;P2;SDS_P1;SDS_P2;PMS_P1;PMS_P2;Temp;Humidity;BMP_temperature;BMP_pressure;BME280_temperature;BME280_humidity;BME280_pressure;Samples;Min_cycle;Max_cycle;Signal;HPM_P1;HPM_P2
2023/06/21 05:23:31;;;;;;;;;10.33;8.00;;;;;19.98;72.00;101310.16;5005288;23;45486;-69
2023/06/21 05:25:56;;;;;;;;;8.67;8.67;;;;;20.01;71.90;101318.19;4950397;28;44814;-69
2023/06/21 05:28:22;;;;;;;;;9.33;6.67;;;;;19.95;70.71;101296.78;4935696;28;45422;-69
2023/06/21 05:30:47;;;;;;;;;8.33;8.33;;;;;20.08;71.98;101316.34;4941786;28;45535;-69
2023/06/21 05:33:14;;;;;;;;;7.00;6.67;;;;;20.08;71.30;101308.31;4940507;28;46272;-69
2023/06/21 05:35:40;;;;;;;;;10.00;9.00;;;;;20.11;72.19;101314.56;4952190;28;45466;-69
2023/06/21 05:38:05;;;;;;;;;9.00;7.67;;;;;20.06;72.39;101302.97;4943083;28;45335;-70
2023/06/21 05:40:30;;;;;;;;;12.00;9.00;;;;;20.09;73.00;101307.41;4940616;28;45323;-70
2023/06/21 05:43:00;;;;;;;;;9.00;9.00;;;;;20.15;72.24;101315.44;4941707;28;48191;-70
2023/06/21 05:45:26;;;;;;;;;10.67;10.67;;;;;20.16;71.72;101314.50;4936964;28;45398;-70
2023/06/21 05:47:52;;;;;;;;;11.33;10.00;;;;;20.19;70.51;101314.47;4936691;28;45562;-70
2023/06/21 05:50:17;;;;;;;;;10.33;9.00;;;;;20.20;72.18;101310.03;4937796;28;53327;-71
2023/06/21 05:52:42;;;;;;;;;10.00;9.67;;;;;20.23;72.07;101312.69;4937059;28;45218;-70
2023/06/21 05:55:08;;;;;;;;;6.67;5.67;;;;;20.32;71.24;101315.31;4939085;28;47952;-70
2023/06/21 05:57:33;;;;;;;;;11.67;10.00;;;;;20.37;71.59;101324.22;4938269;28;45501;-69
2023/06/21 05:59:59;;;;;;;;;10.00;7.67;;;;;20.32;71.86;101297.38;4946959;28;45323;-70
2023/06/21 06:02:24;;;;;;;;;12.67;11.00;;;;;20.47;70.96;101319.66;4947774;28;46868;-71
2023/06/21 06:04:49;;;;;;;;;13.33;11.00;;;;;20.49;71.22;101315.16;4947818;28;45417;-70
2023/06/21 06:07:19;;;;;;;;;10.00;9.67;;;;;20.50;71.16;101308.88;4944765;28;45912;-71
2023/06/21 06:09:44;;;;;;;;;11.00;9.33;;;;;20.53;71.14;101303.53;4941260;28;45445;-72
2023/06/21 06:12:09;;;;;;;;;11.00;9.67;;;;;20.61;70.83;101312.41;4946718;28;45423;-72
2023/06/21 06:14:35;;;;;;;;;11.50;11.50;;;;;20.71;71.03;101318.59;4940343;28;45297;-72
2023/06/21 06:17:00;;;;;;;;;12.67;8.67;;;;;20.71;69.40;101307.84;4943191;28;45435;-71
2023/06/21 06:19:25;;;;;;;;;11.00;11.00;;;;;20.77;70.50;101318.53;4942923;28;45299;-72
2023/06/21 06:21:51;;;;;;;;;8.67;7.67;;;;;20.89;69.85;101325.56;4945608;28;46082;-73
2023/06/21 06:24:16;;;;;;;;;12.00;9.33;;;;;20.94;70.11;101319.25;4942592;28;45397;-69
2023/06/21 06:26:42;;;;;;;;;8.67;8.67;;;;;21.01;69.73;101317.41;4943089;28;45548;-70
2023/06/21 06:29:07;;;;;;;;;9.33;9.33;;;;;21.09;69.47;101314.63;4931650;28;45526;-70
2023/06/21 06:31:32;;;;;;;;;9.67;9.67;;;;;21.30;68.62;101316.19;4943812;28;46194;-70
2023/06/21 06:33:58;;;;;;;;;11.33;11.00;;;;;21.38;68.19;101295.50;4934092;28;45453;-71
2023/06/21 06:36:23;;;;;;;;;9.00;7.67;;;;;21.75;67.43;101313.84;4943634;28;45262;-71
2023/06/21 06:38:49;;;;;;;;;8.33;8.33;;;;;22.02;66.51;101320.66;4916648;28;45472;-70
2023/06/21 06:41:15;;;;;;;;;9.67;9.33;;;;;22.18;66.07;101306.09;4940294;28;45464;-70
2023/06/21 06:43:41;;;;;;;;;10.67;10.67;;;;;22.37;65.05;101289.63;4927969;28;45346;-71
2023/06/21 06:46:06;;;;;;;;;9.33;8.67;;;;;22.74;64.53;101315.03;4935790;28;45329;-71
2023/06/21 06:48:31;;;;;;;;;12.67;11.00;;;;;23.04;63.76;101315.41;4937049;28;45312;-71
2023/06/21 06:50:57;;;;;;;;;9.33;9.33;;;;;23.35;63.27;101330.97;4942807;28;45471;-69
2023/06/21 06:53:22;;;;;;;;;8.67;6.33;;;;;23.68;62.54;101330.28;4932373;28;45329;-70
2023/06/21 06:55:51;;;;;;;;;8.00;8.00;;;;;23.95;61.84;101330.66;4937270;28;45375;-70
2023/06/21 06:58:16;;;;;;;;;6.75;6.00;;;;;24.13;60.78;101319.41;4936066;28;47104;-70
2023/06/21 07:00:41;;;;;;;;;8.25;7.25;;;;;24.47;59.32;101329.41;4941382;28;45339;-70
2023/06/21 07:03:07;;;;;;;;;7.25;6.25;;;;;24.71;58.25;101325.22;4941864;28;45299;-70
2023/06/21 07:05:35;;;;;;;;;8.00;5.00;;;;;24.95;57.81;101333.59;4944467;28;45355;-70
2023/06/21 07:08:01;;;;;;;;;5.50;4.50;;;;;25.16;56.27;101334.88;4943916;28;45509;-70
2023/06/21 07:10:26;;;;;;;;;5.25;5.25;;;;;25.47;59.08;101347.53;4944881;28;46318;-70
2023/06/21 07:12:51;;;;;;;;;5.00;5.00;;;;;25.66;56.54;101346.06;4942185;28;50272;-70
2023/06/21 07:15:17;;;;;;;;;7.25;4.50;;;;;25.90;54.14;101341.75;4945887;28;45464;-70
2023/06/21 07:17:42;;;;;;;;;8.75;6.00;;;;;26.18;53.14;101344.47;4948137;28;45303;-70
2023/06/21 07:20:08;;;;;;;;;5.00;5.00;;;;;26.49;57.23;101355.22;4954551;28;46138;-70
2023/06/21 07:22:33;;;;;;;;;6.50;5.75;;;;;26.73;52.04;101353.56;4948569;28;45401;-70
2023/06/21 07:24:59;;;;;;;;;4.25;4.25;;;;;26.98;52.78;101359.00;4942769;28;45263;-70
2023/06/21 07:27:26;;;;;;;;;5.00;5.00;;;;;27.23;51.54;101347.31;4937936;28;45366;-70
2023/06/21 07:29:52;;;;;;;;;5.00;5.00;;;;;27.37;48.91;101345.00;4949981;28;47178;-70
2023/06/21 07:32:17;;;;;;;;;5.75;3.25;;;;;27.66;54.02;101343.88;4941107;28;45516;-70
2023/06/21 07:34:42;;;;;;;;;6.25;4.25;;;;;27.75;49.39;101337.19;4949532;28;45328;-70
2023/06/21 07:37:08;;;;;;;;;1.75;1.75;;;;;28.00;47.52;101342.59;4947756;28;54329;-70
2023/06/21 07:39:33;;;;;;;;;2.75;2.75;;;;;28.27;48.23;101353.31;4950389;28;45800;-70
2023/06/21 07:42:04;;;;;;;;;4.75;4.25;;;;;28.49;46.31;101340.66;4947897;28;45420;-70
2023/06/21 07:44:29;;;;;;;;;3.40;3.40;;;;;28.78;46.45;101342.13;4935923;28;45310;-71
2023/06/21 07:46:55;;;;;;;;;5.75;5.00;;;;;29.03;44.97;101338.38;4940229;28;45468;-70
2023/06/21 07:49:20;;;;;;;;;4.25;3.25;;;;;29.22;46.04;101339.31;4942439;28;47959;-70
2023/06/21 07:51:45;;;;;;;;;3.25;3.25;;;;;29.33;48.89;101336.09;4942427;28;48093;-71
2023/06/21 07:54:11;;;;;;;;;3.75;3.75;;;;;29.59;48.20;101339.47;4944171;28;45293;-71
2023/06/21 07:56:36;;;;;;;;;2.75;2.75;;;;;29.80;43.41;101338.50;4942064;28;51671;-71
2023/06/21 07:59:01;;;;;;;;;4.00;4.00;;;;;29.95;47.58;101338.72;4939502;28;45429;-71
2023/06/21 08:01:26;;;;;;;;;4.00;4.00;;;;;30.08;42.55;101348.97;4943155;28;45345;-71
2023/06/21 08:03:52;;;;;;;;;4.00;4.00;;;;;30.28;42.94;101356.19;4927424;28;45347;-71
2023/06/21 08:06:17;;;;;;;;;5.50;3.25;;;;;30.54;45.04;101354.00;4949406;28;45527;-71
2023/06/21 08:08:43;;;;;;;;;3.50;3.00;;;;;30.62;42.52;101354.50;4942288;28;45541;-71
2023/06/21 08:11:09;;;;;;;;;3.25;3.25;;;;;30.75;42.16;101357.47;4945011;28;45292;-71
2023/06/21 08:13:34;;;;;;;;;3.20;3.20;;;;;30.83;41.31;101352.53;4937293;28;45307;-71
2023/06/21 08:15:59;;;;;;;;;6.00;6.00;;;;;30.96;44.13;101359.16;4941678;28;45539;-71
2023/06/21 08:18:25;;;;;;;;;3.75;3.75;;;;;31.02;40.26;101355.22;4934006;28;48401;-71
2023/06/21 08:20:50;;;;;;;;;4.50;2.50;;;;;31.24;39.84;101367.75;4952096;28;45341;-71
2023/06/21 08:23:15;;;;;;;;;4.25;4.00;;;;;31.34;39.73;101350.78;4935783;28;45732;-69
2023/06/21 08:25:41;;;;;;;;;3.75;3.75;;;;;31.65;39.11;101363.69;4950291;28;45529;-71
2023/06/21 08:28:06;;;;;;;;;4.50;3.25;;;;;31.81;39.77;101362.81;4945394;28;46137;-71
2023/06/21 08:30:31;;;;;;;;;3.75;3.50;;;;;31.96;39.34;101362.00;4948914;28;45368;-71
2023/06/21 08:32:57;;;;;;;;;6.50;4.50;;;;;32.03;41.21;101368.00;4944792;28;45378;-71
2023/06/21 08:35:22;;;;;;;;;5.25;4.00;;;;;32.20;38.25;101367.91;4943501;28;45316;-71
2023/06/21 08:37:56;;;;;;;;;6.25;4.25;;;;;32.47;41.18;101370.06;4943249;28;46023;-71
2023/06/21 08:40:26;;;;;;;;;3.80;2.80;;;;;32.70;39.64;101374.19;4945766;28;45319;-71
2023/06/21 08:42:53;;;;;;;;;5.80;4.20;;;;;32.88;38.53;101356.66;4943382;28;45400;-72
2023/06/21 08:45:19;;;;;;;;;7.00;4.60;;;;;33.13;41.27;101377.09;4946089;28;45530;-69
2023/06/21 08:47:45;;;;;;;;;3.00;3.00;;;;;33.21;39.52;101367.41;4942394;28;47292;-67
2023/06/21 08:50:13;;;;;;;;;4.00;4.00;;;;;33.23;37.94;101352.75;4946769;28;45344;-69
2023/06/21 08:52:43;;;;;;;;;3.20;3.20;;;;;33.37;37.87;101363.75;4945609;28;45406;-69
2023/06/21 08:55:10;;;;;;;;;5.20;4.60;;;;;33.30;37.34;101340.41;4948956;28;45577;-69
2023/06/21 08:57:46;;;;;;;;;4.00;4.00;;;;;33.18;37.30;101353.03;4942324;28;45475;-71
2023/06/21 09:00:13;;;;;;;;;4.80;4.60;;;;;32.94;36.07;101345.31;4946685;28;45358;-70
2023/06/21 09:02:52;;;;;;;;;3.60;3.60;;;;;32.94;39.70;101372.72;4937833;28;45436;-72
2023/06/21 09:05:25;;;;;;;;;4.40;4.00;;;;;32.64;37.31;101372.69;4948841;28;45494;-71
2023/06/21 09:07:51;;;;;;;;;7.40;3.60;;;;;32.59;39.69;101387.63;4928007;28;45187;-70
2023/06/21 09:10:20;;;;;;;;;3.75;3.75;;;;;32.46;39.45;101380.13;4949526;28;45321;-71
2023/06/21 09:12:48;;;;;;;;;4.60;4.60;;;;;32.29;37.65;101380.19;4934929;28;45311;-71
2023/06/21 09:15:14;;;;;;;;;4.40;4.40;;;;;32.09;37.18;101384.06;4951334;28;45281;-70
2023/06/21 09:17:44;;;;;;;;;4.20;4.20;;;;;32.07;36.85;101369.59;4936901;28;45465;-71
2023/06/21 09:20:11;;;;;;;;;6.00;4.20;;;;;32.05;36.82;101374.28;4949837;28;45353;-69
2023/06/21 09:22:37;;;;;;;;;5.60;5.60;;;;;31.88;36.83;101361.53;4934485;28;45471;-71
2023/06/21 09:25:03;;;;;;;;;5.40;4.20;;;;;31.72;38.23;101347.81;4938376;28;45482;-71
2023/06/21 09:27:28;;;;;;;;;4.50;4.25;;;;;31.86;38.67;101347.91;4938386;28;45419;-71
2023/06/21 09:29:54;;;;;;;;;3.00;2.25;;;;;32.02;37.72;101364.38;4952738;28;45278;-71
2023/06/21 09:32:19;;;;;;;;;6.50;4.50;;;;;32.12;37.18;101380.25;4940865;28;45924;-71
2023/06/21 09:34:45;;;;;;;;;5.75;4.50;;;;;32.08;36.99;101371.34;4949109;28;45493;-71
2023/06/21 09:37:29;;;;;;;;;6.00;6.00;;;;;32.01;36.17;101368.09;4943137;28;46179;-71
2023/06/21 09:39:54;;;;;;;;;3.40;3.40;;;;;32.38;37.99;101374.19;4944359;28;45296;-71
2023/06/21 09:42:21;;;;;;;;;6.00;4.00;;;;;32.62;35.71;101376.50;4945541;28;45345;-71
2023/06/21 09:44:48;;;;;;;;;4.80;4.80;;;;;32.98;36.42;101374.28;4951298;28;45394;-71
2023/06/21 09:47:13;;;;;;;;;4.60;4.40;;;;;33.22;35.70;101387.50;4946738;28;46113;-69
2023/06/21 09:49:45;;;;;;;;;4.00;4.00;;;;;33.28;37.73;101369.81;4948325;28;45674;-70
2023/06/21 09:52:11;;;;;;;;;3.00;3.00;;;;;33.42;35.47;101384.41;4947255;28;45195;-70
2023/06/21 09:54:43;;;;;;;;;4.50;4.50;;;;;33.25;37.73;101383.69;4949920;28;45340;-71
2023/06/21 09:57:08;;;;;;;;;5.00;3.00;;;;;33.12;35.79;101378.94;4946625;28;45473;-72
2023/06/21 09:59:38;;;;;;;;;4.00;4.00;;;;;33.36;35.60;101384.78;4923463;28;45606;-71
2023/06/21 10:02:06;;;;;;;;;3.40;3.40;;;;;33.54;35.32;101381.91;4944552;28;45382;-71
2023/06/21 10:04:40;;;;;;;;;4.80;4.60;;;;;33.75;34.97;101379.63;4935569;28;45409;-70
2023/06/21 10:07:05;;;;;;;;;3.20;3.20;;;;;33.90;34.63;101378.66;4937488;28;45636;-73
2023/06/21 10:09:37;;;;;;;;;4.50;4.25;;;;;33.93;34.50;101366.63;4937483;28;45431;-70
2023/06/21 10:12:10;;;;;;;;;4.40;4.40;;;;;33.97;35.34;101357.19;4940334;28;45441;-70
2023/06/21 10:14:36;;;;;;;;;3.80;3.80;;;;;34.20;33.11;101377.66;4941377;28;45481;-70
2023/06/21 10:17:02;;;;;;;;;4.25;4.25;;;;;34.45;33.40;101368.69;4936091;28;46295;-70
2023/06/21 10:19:31;;;;;;;;;6.80;6.80;;;;;34.77;31.49;101362.91;4932494;28;45330;-70
2023/06/21 10:22:06;;;;;;;;;7.60;7.00;;;;;35.10;33.55;101365.22;4937017;28;45506;-72
2023/06/21 10:24:37;;;;;;;;;8.20;7.00;;;;;35.38;33.31;101366.91;4936418;28;45369;-71
2023/06/21 10:27:06;;;;;;;;;4.80;2.80;;;;;35.66;33.00;101370.47;4938762;28;45354;-73
2023/06/21 10:29:32;;;;;;;;;6.00;4.00;;;;;35.83;30.94;101372.84;4942756;28;45266;-71
2023/06/21 10:32:00;;;;;;;;;8.00;7.50;;;;;35.97;30.91;101360.84;4936847;28;45492;-71
2023/06/21 10:34:30;;;;;;;;;5.00;3.80;;;;;36.15;32.52;101369.63;4941704;28;45151;-71
2023/06/21 10:37:06;;;;;;;;;2.20;2.20;;;;;35.96;30.29;101359.06;4940946;28;46232;-71
2023/06/21 10:39:33;;;;;;;;;5.80;4.80;;;;;35.88;30.13;101367.91;4941573;28;45322;-71
2023/06/21 10:42:01;;;;;;;;;4.40;4.00;;;;;35.93;29.84;101362.03;4940653;28;45512;-72
2023/06/21 10:44:30;;;;;;;;;3.80;3.80;;;;;36.03;30.35;101355.75;4943127;28;45556;-72
2023/06/21 10:46:57;;;;;;;;;2.60;2.60;;;;;36.20;30.15;101371.03;4946864;28;45349;-71
2023/06/21 10:49:25;;;;;;;;;4.00;4.00;;;;;36.06;29.79;101362.94;4943041;28;45275;-71
2023/06/21 10:51:51;;;;;;;;;5.00;4.20;;;;;35.88;30.81;101358.75;4941551;28;45222;-72
2023/06/21 10:54:17;;;;;;;;;2.75;2.75;;;;;35.90;31.30;101360.38;4934714;28;45490;-72
2023/06/21 10:56:43;;;;;;;;;5.00;4.00;;;;;36.01;31.66;101365.97;4940262;28;45395;-72
2023/06/21 10:59:10;;;;;;;;;3.75;3.00;;;;;36.03;30.46;101363.13;4923683;28;45294;-71
2023/06/21 11:01:36;;;;;;;;;3.20;3.20;;;;;36.29;30.96;101370.34;4950568;28;45500;-71
2023/06/21 11:04:03;;;;;;;;;4.00;2.00;;;;;36.41;27.68;101368.56;4938620;28;45495;-73
2023/06/21 11:06:33;;;;;;;;;3.60;3.60;;;;;36.59;27.77;101366.28;4954509;28;45940;-72
2023/06/21 11:09:08;;;;;;;;;4.40;4.00;;;;;36.48;26.96;101364.31;4941959;28;45412;-72
2023/06/21 11:11:36;;;;;;;;;4.20;4.20;;;;;36.32;28.53;101369.22;4954291;28;45378;-72
2023/06/21 11:14:03;;;;;;;;;3.80;3.80;;;;;36.62;28.62;101363.31;4943100;28;45871;-73
2023/06/21 11:16:36;;;;;;;;;2.60;2.40;;;;;36.75;27.41;101357.75;4954602;28;45225;-72
2023/06/21 11:19:05;;;;;;;;;2.80;2.40;;;;;36.96;29.35;101350.53;4935090;28;45374;-72
2023/06/21 11:21:40;;;;;;;;;6.00;4.00;;;;;37.21;29.59;101359.66;4952657;28;45398;-72
2023/06/21 11:24:09;;;;;;;;;5.40;5.40;;;;;36.95;26.06;101350.66;4935860;28;45982;-73
2023/06/21 11:27:04;;;;;;;;;4.00;4.00;;;;;36.94;29.10;101348.91;4943659;28;45461;-72
2023/06/21 11:29:36;;;;;;;;;3.00;3.00;;;;;36.75;27.41;101357.75;4953857;28;45889;-72
2023/06/21 11:32:14;;;;;;;;;4.00;4.00;;;;;36.47;28.77;101368.09;4945562;28;45377;-72
2023/06/21 11:34:53;;;;;;;;;2.20;2.20;;;;;36.09;28.39;101362.69;4940019;28;45493;-71
2023/06/21 11:37:47;;;;;;;;;3.40;3.40;;;;;35.71;29.30;101358.13;4944282;28;46004;-72
2023/06/21 11:40:26;;;;;;;;;3.20;3.20;;;;;35.27;28.98;101355.78;4945225;28;45398;-72
2023/06/21 11:42:52;;;;;;;;;5.60;4.20;;;;;34.90;30.22;101361.06;4942939;28;45265;-71
2023/06/21 11:45:26;;;;;;;;;4.00;4.00;;;;;34.53;28.97;101366.31;4947104;28;45228;-71
2023/06/21 11:48:10;;;;;;;;;4.00;4.00;;;;;34.35;30.44;101357.44;4943852;28;45388;-72
2023/06/21 11:50:43;;;;;;;;;5.40;4.40;;;;;34.43;29.78;101357.81;4948363;28;45255;-71
2023/06/21 11:53:20;;;;;;;;;3.80;3.80;;;;;34.48;30.81;101352.03;4932741;28;45393;-71
2023/06/21 11:55:48;;;;;;;;;2.40;2.40;;;;;34.67;29.76;101362.66;4944454;28;45281;-72
2023/06/21 11:58:15;;;;;;;;;1.60;1.20;;;;;34.78;28.02;101350.94;4936484;28;46476;-72
2023/06/21 12:00:41;;;;;;;;;7.00;4.40;;;;;35.07;29.09;101358.09;4945869;28;45378;-72
2023/06/21 12:03:06;;;;;;;;;2.80;2.80;;;;;35.31;29.18;101349.06;4938033;28;45308;-72
2023/06/21 12:05:49;;;;;;;;;3.00;3.00;;;;;35.70;29.65;101339.84;4944434;28;45565;-72
2023/06/21 12:08:16;;;;;;;;;3.40;3.00;;;;;36.09;29.28;101343.44;4942734;28;48321;-71
2023/06/21 12:10:42;;;;;;;;;4.60;4.20;;;;;36.26;27.67;101328.41;4938249;28;45278;-71
2023/06/21 12:13:11;;;;;;;;;3.75;2.50;;;;;36.43;25.65;101346.41;4937360;28;45387;-73
2023/06/21 12:15:36;;;;;;;;;4.20;4.20;;;;;36.67;27.47;101336.28;4935250;28;45516;-72
2023/06/21 12:18:05;;;;;;;;;4.50;4.50;;;;;36.78;26.66;101340.97;4940745;28;45528;-71
2023/06/21 12:20:31;;;;;;;;;5.20;5.20;;;;;36.60;26.10;101323.97;4948511;28;45496;-72
2023/06/21 12:22:56;;;;;;;;;5.00;3.20;;;;;36.76;26.16;101342.94;4939926;28;47576;-71
2023/06/21 12:25:22;;;;;;;;;5.00;4.00;;;;;36.91;27.01;101335.34;4940635;28;45543;-71
2023/06/21 12:27:57;;;;;;;;;3.00;3.00;;;;;37.02;27.70;101332.66;4945160;28;46238;-71
2023/06/21 12:30:25;;;;;;;;;3.80;3.80;;;;;37.02;26.36;101337.31;4941584;28;45454;-71
2023/06/21 12:32:51;;;;;;;;;3.00;3.00;;;;;36.89;27.43;101337.38;4932271;28;45361;-71
2023/06/21 12:35:17;;;;;;;;;6.50;3.50;;;;;36.86;27.62;101343.09;4945846;28;45242;-71
2023/06/21 12:37:45;;;;;;;;;4.80;4.20;;;;;36.91;27.16;101333.47;4944206;28;46369;-71
2023/06/21 12:40:11;;;;;;;;;3.80;3.60;;;;;36.84;25.83;101326.69;4946764;28;45386;-71
2023/06/21 12:42:37;;;;;;;;;4.20;4.20;;;;;37.04;25.15;101336.19;4940849;28;45350;-71
2023/06/21 12:45:05;;;;;;;;;2.75;2.75;;;;;37.22;26.68;101317.28;4946949;28;46216;-71
2023/06/21 12:47:31;;;;;;;;;4.80;4.20;;;;;37.20;24.13;101324.84;4944729;28;48453;-72
2023/06/21 12:50:00;;;;;;;;;7.00;4.60;;;;;37.40;26.88;101326.84;4941935;28;45259;-71
2023/06/21 12:52:28;;;;;;;;;4.80;3.60;;;;;37.37;24.86;101313.31;4937315;28;45445;-71
2023/06/21 12:54:55;;;;;;;;;8.40;4.80;;;;;37.66;26.48;101311.97;4939039;28;45404;-71
2023/06/21 12:57:31;;;;;;;;;3.20;3.20;;;;;37.95;25.98;101324.28;4939571;28;45967;-72
2023/06/21 12:59:57;;;;;;;;;2.40;2.00;;;;;38.21;25.37;101327.63;4939453;28;45238;-72
2023/06/21 13:02:28;;;;;;;;;4.00;4.00;;;;;38.46;24.17;101331.97;4934251;28;45345;-71
2023/06/21 13:04:55;;;;;;;;;3.40;3.40;;;;;38.69;24.62;101316.16;4931221;28;45611;-72
2023/06/21 13:07:21;;;;;;;;;3.00;2.80;;;;;38.83;25.55;101336.22;4934485;28;45256;-72
2023/06/21 13:09:47;;;;;;;;;5.00;5.00;;;;;38.56;23.59;101334.81;4942086;28;45900;-71
2023/06/21 13:12:12;;;;;;;;;3.75;3.75;;;;;38.51;23.42;101339.84;4934948;28;45297;-71
2023/06/21 13:14:37;;;;;;;;;4.00;3.00;;;;;38.54;25.13;101347.00;4937924;28;45385;-71
2023/06/21 13:17:03;;;;;;;;;5.00;5.00;;;;;38.53;24.70;101337.84;4937594;28;46734;-71
2023/06/21 13:19:28;;;;;;;;;2.00;2.00;;;;;38.51;25.29;101331.56;4938698;28;45458;-71
2023/06/21 13:21:54;;;;;;;;;3.75;3.75;;;;;38.65;24.87;101345.09;4939325;28;45472;-71
2023/06/21 13:24:19;;;;;;;;;3.50;3.25;;;;;38.93;25.49;101339.94;4936253;28;45410;-71
2023/06/21 13:26:44;;;;;;;;;4.00;4.00;;;;;39.13;23.58;101332.69;4940340;28;46779;-72
2023/06/21 13:29:10;;;;;;;;;4.00;4.00;;;;;39.36;23.68;101339.84;4937268;28;45390;-71
2023/06/21 13:31:35;;;;;;;;;5.00;3.50;;;;;39.40;23.97;101345.97;4940945;28;45309;-71
2023/06/21 13:34:01;;;;;;;;;6.00;5.00;;;;;39.21;24.52;101343.03;4934999;28;45461;-71
2023/06/21 13:36:26;;;;;;;;;5.00;4.00;;;;;38.97;24.97;101335.03;4939433;28;47137;-71
2023/06/21 13:38:51;;;;;;;;;3.50;3.50;;;;;38.68;23.53;101339.28;4936188;28;45773;-72
2023/06/21 13:41:17;;;;;;;;;4.00;4.00;;;;;38.47;23.18;101350.28;4941487;28;45450;-71
2023/06/21 13:43:44;;;;;;;;;5.00;5.00;;;;;38.22;22.07;101337.63;4933705;28;45574;-71
2023/06/21 13:46:09;;;;;;;;;3.20;3.20;;;;;38.29;22.86;101341.66;4948989;28;47296;-71
2023/06/21 13:48:34;;;;;;;;;4.75;4.75;;;;;38.32;23.19;101325.81;4933898;28;45218;-71
2023/06/21 13:51:00;;;;;;;;;5.00;5.00;;;;;38.60;22.99;101344.59;4943590;28;45973;-72
2023/06/21 13:53:27;;;;;;;;;4.00;4.00;;;;;38.59;23.75;101326.25;4932670;28;45793;-72
2023/06/21 13:55:52;;;;;;;;;4.40;4.40;;;;;38.57;23.17;101338.44;4957940;28;45770;-71
2023/06/21 13:58:18;;;;;;;;;5.25;4.25;;;;;38.69;23.34;101320.81;4936734;28;45503;-71
2023/06/21 14:00:43;;;;;;;;;3.25;3.25;;;;;38.78;24.76;101319.16;4942638;28;46220;-71
2023/06/21 14:03:09;;;;;;;;;5.00;5.00;;;;;38.40;23.19;101309.47;4930089;28;45477;-71
2023/06/21 14:05:34;;;;;;;;;6.00;6.00;;;;;38.12;23.23;101325.63;4929966;28;46762;-71
2023/06/21 14:07:59;;;;;;;;;6.00;5.00;;;;;37.74;23.59;101301.19;4934311;28;45503;-71
2023/06/21 14:10:25;;;;;;;;;6.00;4.50;;;;;37.55;24.89;101313.72;4932820;28;45366;-71
2023/06/21 14:12:50;;;;;;;;;6.00;4.50;;;;;37.13;24.93;101290.47;4937339;28;45420;-71
2023/06/21 14:15:16;;;;;;;;;9.25;7.00;;;;;37.00;25.14;101317.22;4936337;28;45317;-71
2023/06/21 14:17:42;;;;;;;;;4.00;4.00;;;;;36.67;24.16;101311.50;4938251;28;45454;-71
2023/06/21 14:20:09;;;;;;;;;4.40;4.40;;;;;36.41;25.48;101307.06;4955717;28;45419;-71
2023/06/21 14:22:37;;;;;;;;;4.40;3.20;;;;;36.48;24.54;101323.00;4937594;28;45183;-72
2023/06/21 14:25:05;;;;;;;;;6.00;5.20;;;;;36.44;25.17;101316.00;4951081;28;46503;-72
2023/06/21 14:27:31;;;;;;;;;6.60;3.20;;;;;36.37;25.03;101324.84;4948096;28;45273;-71
2023/06/21 14:30:01;;;;;;;;;5.00;5.00;;;;;36.23;24.46;101343.28;4955969;28;51063;-71
2023/06/21 14:32:27;;;;;;;;;4.00;3.00;;;;;35.72;26.02;101307.63;4943976;28;45384;-71
2023/06/21 14:34:53;;;;;;;;;4.80;4.80;;;;;35.56;25.98;101329.84;4948983;28;46029;-71
2023/06/21 14:37:18;;;;;;;;;3.25;3.25;;;;;35.25;25.91;101327.53;4946971;28;45464;-71
2023/06/21 14:39:43;;;;;;;;;5.50;5.50;;;;;34.83;26.75;101316.66;4949699;28;45243;-71
2023/06/21 14:42:11;;;;;;;;;2.00;2.00;;;;;34.45;26.68;101305.53;4949540;28;45469;-71
2023/06/21 14:44:37;;;;;;;;;4.20;3.80;;;;;34.33;27.07;101320.09;4950796;28;45503;-71
2023/06/21 14:47:03;;;;;;;;;5.20;4.80;;;;;34.11;26.96;101317.91;4953342;28;45273;-71
2023/06/21 14:49:28;;;;;;;;;6.50;5.25;;;;;34.01;27.68;101329.47;4953257;28;45353;-71
2023/06/21 14:51:54;;;;;;;;;6.25;5.25;;;;;33.78;27.41;101314.53;4951202;28;45303;-71
2023/06/21 14:54:21;;;;;;;;;6.75;5.25;;;;;33.82;27.04;101307.84;4940366;28;45295;-72
2023/06/21 14:56:46;;;;;;;;;10.60;4.40;;;;;33.84;27.81;101316.88;4950191;28;45508;-71
2023/06/21 14:59:12;;;;;;;;;6.25;4.75;;;;;33.76;27.76;101310.13;4943173;28;45368;-71
2023/06/21 15:01:37;;;;;;;;;3.00;3.00;;;;;33.59;28.29;101309.34;4949313;28;45247;-71
2023/06/21 15:04:03;;;;;;;;;9.00;6.25;;;;;33.51;28.79;101310.78;4945209;28;45221;-71
2023/06/21 15:06:28;;;;;;;;;6.75;5.00;;;;;33.48;28.28;101321.94;4951938;28;45439;-71
2023/06/21 15:08:53;;;;;;;;;6.25;4.00;;;;;33.38;28.62;101311.56;4943143;28;45164;-71
2023/06/21 15:11:19;;;;;;;;;4.25;4.25;;;;;33.29;28.83;101311.25;4953415;28;45322;-71
2023/06/21 15:13:45;;;;;;;;;7.00;5.50;;;;;33.15;28.98;101312.13;4941988;28;45354;-71
2023/06/21 15:16:10;;;;;;;;;6.00;6.00;;;;;33.01;29.47;101303.88;4945975;28;45382;-71
2023/06/21 15:18:35;;;;;;;;;5.00;5.00;;;;;32.85;29.14;101301.16;4939192;28;45285;-71
2023/06/21 15:21:00;;;;;;;;;6.00;6.00;;;;;32.74;29.76;101310.03;4955614;28;50567;-70
2023/06/21 15:23:26;;;;;;;;;7.75;7.00;;;;;32.65;29.67;101302.38;4937016;28;55118;-70
2023/06/21 15:25:51;;;;;;;;;5.75;5.25;;;;;32.60;29.76;101310.00;4945786;28;45453;-70
2023/06/21 15:28:16;;;;;;;;;8.50;6.00;;;;;32.57;30.56;101315.66;4943536;28;45374;-70
2023/06/21 15:30:42;;;;;;;;;5.00;5.00;;;;;32.42;30.14;101298.25;4944779;28;45403;-70
2023/06/21 15:33:07;;;;;;;;;7.50;4.25;;;;;32.29;29.93;101298.09;4938835;28;45491;-72
2023/06/21 15:35:32;;;;;;;;;6.50;6.50;;;;;32.21;30.47;101304.03;4952974;28;45404;-71
2023/06/21 15:37:58;;;;;;;;;7.50;7.50;;;;;32.10;30.38;101312.88;4941084;28;45750;-71
2023/06/21 15:40:23;;;;;;;;;4.00;4.00;;;;;31.93;31.19;101287.44;4949245;28;45600;-71
2023/06/21 15:42:48;;;;;;;;;6.50;6.50;;;;;31.72;31.14;101273.13;4947036;28;45561;-72
2023/06/21 15:45:14;;;;;;;;;10.00;6.25;;;;;31.70;31.77;101300.53;4952401;28;45460;-72
2023/06/21 15:47:39;;;;;;;;;7.50;7.00;;;;;31.54;32.19;101297.78;4946146;28;45400;-72
2023/06/21 15:50:09;;;;;;;;;7.75;5.00;;;;;31.41;31.80;101292.13;4941191;28;45511;-73
2023/06/21 15:52:35;;;;;;;;;5.00;5.00;;;;;31.33;32.99;101296.22;4929911;28;46928;-73
2023/06/21 15:55:00;;;;;;;;;5.60;5.40;;;;;31.30;32.41;101297.25;4939199;28;45462;-72
2023/06/21 15:57:26;;;;;;;;;7.00;6.25;;;;;31.15;32.70;101285.31;4935900;28;45763;-71
2023/06/21 15:59:51;;;;;;;;;6.50;6.00;;;;;31.20;33.33;101288.69;4940622;28;45353;-72
2023/06/21 16:02:16;;;;;;;;;5.00;5.00;;;;;31.22;33.47;101288.59;4936197;28;46184;-72
2023/06/21 16:04:42;;;;;;;;;6.75;6.75;;;;;31.13;33.79;101283.63;4930975;28;45286;-71
2023/06/21 16:07:07;;;;;;;;;1.75;1.25;;;;;31.09;34.60;101284.75;4923368;28;45428;-72
2023/06/21 16:09:32;;;;;;;;;9.75;7.75;;;;;31.11;34.36;101285.56;4935715;28;45427;-72
2023/06/21 16:11:58;;;;;;;;;6.00;6.00;;;;;31.09;34.10;101276.56;4939482;28;45326;-72
2023/06/21 16:14:24;;;;;;;;;9.25;7.50;;;;;31.09;34.06;101273.81;4934019;28;45564;-72
2023/06/21 16:16:50;;;;;;;;;7.80;6.60;;;;;31.05;33.41;101273.13;4941185;28;45582;-72
2023/06/21 16:19:16;;;;;;;;;5.20;4.20;;;;;31.00;34.47;101275.22;4934975;28;45283;-72
2023/06/21 16:21:41;;;;;;;;;5.50;5.50;;;;;30.93;34.00;101279.25;4942003;28;45537;-72
2023/06/21 16:24:09;;;;;;;;;8.50;6.75;;;;;30.81;34.03;101266.22;4935735;28;45606;-72
2023/06/21 16:26:34;;;;;;;;;8.80;8.00;;;;;30.78;34.10;101267.25;4945799;28;45509;-72
2023/06/21 16:28:59;;;;;;;;;6.00;6.00;;;;;30.73;34.16;101262.03;4937755;28;45868;-72
2023/06/21 16:31:25;;;;;;;;;7.50;7.50;;;;;30.71;34.70;101261.22;4946108;28;45813;-74
2023/06/21 16:33:50;;;;;;;;;8.25;7.25;;;;;30.68;34.94;101257.78;4936070;28;45525;-74
2023/06/21 16:36:15;;;;;;;;;6.25;5.50;;;;;30.70;35.19;101261.34;4949290;28;45377;-73
2023/06/21 16:38:41;;;;;;;;;5.75;5.75;;;;;30.60;34.98;101238.22;4939240;28;45329;-73
2023/06/21 16:41:06;;;;;;;;;6.00;6.00;;;;;30.67;34.52;101259.66;4956020;28;46574;-73
2023/06/21 16:43:32;;;;;;;;;7.50;7.50;;;;;30.54;34.81;101228.50;4942367;28;45348;-72
2023/06/21 16:45:57;;;;;;;;;10.25;7.25;;;;;30.58;35.05;101248.31;4956773;28;45444;-73